createdAt,value
2022-10-19T04:49:58.269Z,0.00
2022-10-19T04:50:08.982Z,0.00
2022-10-19T04:51:03.477Z,0.00
2022-10-19T04:52:03.011Z,0.00
2022-10-19T04:53:02.998Z,0.00
2022-10-19T04:54:02.994Z,0.00
2022-10-19T04:55:02.978Z,0.00
2022-10-19T04:56:02.958Z,0.00
2022-10-19T04:57:03.890Z,0.00
2022-10-19T04:58:02.926Z,0.00
2022-10-19T04:59:02.909Z,0.00
2022-10-19T05:00:02.939Z,0.00
2022-10-19T05:01:03.965Z,0.00
2022-10-19T05:02:02.897Z,0.00
2022-10-19T05:03:02.869Z,0.00
2022-10-19T05:04:02.854Z,0.00
2022-10-19T05:05:02.849Z,2.00
2022-10-19T05:06:02.820Z,2.00
2022-10-19T05:07:03.068Z,0.00
2022-10-19T05:08:02.792Z,0.00
2022-10-19T05:09:02.792Z,0.00
2022-10-19T05:10:03.545Z,0.00
2022-10-19T05:11:02.753Z,1.00
2022-10-19T05:12:02.739Z,1.00
2022-10-19T05:13:02.722Z,0.00
2022-10-19T05:14:03.672Z,2.00
2022-10-19T05:15:02.713Z,7.00
2022-10-19T05:16:02.694Z,3.00
2022-10-19T05:17:02.674Z,3.00
2022-10-19T05:18:02.994Z,5.00
2022-10-19T05:19:02.652Z,6.00
2022-10-19T05:20:02.645Z,7.00
2022-10-19T05:21:02.615Z,9.00
2022-10-19T05:22:02.605Z,10.00
2022-10-19T05:23:06.293Z,15.00
2022-10-19T05:24:02.585Z,22.00
2022-10-19T05:25:02.578Z,21.00
2022-10-19T05:26:02.555Z,30.00
2022-10-19T05:27:02.546Z,38.00
2022-10-19T05:28:02.528Z,43.00
2022-10-19T05:29:02.603Z,59.00
2022-10-19T05:30:02.514Z,67.00
2022-10-19T05:31:02.478Z,77.00
2022-10-19T05:32:02.467Z,89.00
2022-10-19T05:33:02.448Z,106.00
2022-10-19T05:34:02.472Z,118.00
2022-10-19T05:35:02.479Z,143.00
2022-10-19T05:36:02.416Z,156.00
2022-10-19T05:37:02.398Z,187.00
2022-10-19T05:38:02.387Z,211.00
2022-10-19T05:39:02.381Z,242.00
2022-10-19T05:40:02.372Z,276.00
2022-10-19T05:41:02.344Z,310.00
2022-10-19T05:42:02.360Z,346.00
2022-10-19T05:43:02.327Z,373.00
2022-10-19T05:44:02.309Z,400.00
2022-10-19T05:45:02.310Z,435.00
2022-10-19T05:46:02.280Z,469.00
2022-10-19T05:47:02.309Z,495.00
2022-10-19T05:48:02.253Z,509.00
2022-10-19T05:49:02.245Z,528.00
2022-10-19T05:50:02.241Z,530.00
2022-10-19T05:51:02.234Z,509.00
2022-10-19T05:52:02.220Z,495.00
2022-10-19T05:53:02.220Z,490.00
2022-10-19T05:54:02.177Z,491.00
2022-10-19T05:55:02.173Z,493.00
2022-10-19T05:56:02.154Z,499.00
2022-10-19T05:57:02.140Z,497.00
2022-10-19T05:58:02.123Z,508.00
2022-10-19T05:59:02.105Z,508.00
2022-10-19T06:00:02.104Z,517.00
2022-10-19T06:01:02.085Z,530.00
2022-10-19T06:02:02.101Z,537.00
2022-10-19T06:03:02.084Z,581.00
2022-10-19T06:04:02.056Z,640.00
2022-10-19T06:05:02.032Z,689.00
2022-10-19T06:06:02.015Z,753.00
2022-10-19T06:07:02.947Z,841.00
2022-10-19T06:08:01.986Z,934.00
2022-10-19T06:09:01.976Z,972.00
2022-10-19T06:10:01.966Z,994.00
2022-10-19T06:11:01.947Z,1008.00
2022-10-19T06:12:01.933Z,971.00
2022-10-19T06:13:01.917Z,940.00
2022-10-19T06:14:01.920Z,924.00
2022-10-19T06:15:01.901Z,901.00
2022-10-19T06:16:01.885Z,849.00
2022-10-19T06:17:01.868Z,806.00
2022-10-19T06:18:01.868Z,773.00
2022-10-19T06:19:01.841Z,757.00
2022-10-19T06:20:01.829Z,818.00
2022-10-19T06:21:01.808Z,951.00
2022-10-19T06:22:01.808Z,1089.00
2022-10-19T06:23:01.790Z,1147.00
2022-10-19T06:24:01.781Z,1177.00
2022-10-19T06:25:01.751Z,1179.00
2022-10-19T06:26:01.749Z,1164.00
2022-10-19T06:27:01.739Z,1177.00
2022-10-19T06:28:01.721Z,1254.00
2022-10-19T06:29:01.711Z,1382.00
2022-10-19T06:30:01.702Z,1493.00
2022-10-19T06:31:01.775Z,1618.00
2022-10-19T06:32:01.662Z,1683.00
2022-10-19T06:34:01.712Z,1716.00
2022-10-19T06:35:01.622Z,1694.00
2022-10-19T06:36:01.613Z,1659.00
2022-10-19T06:37:01.603Z,1634.00
2022-10-19T06:38:01.584Z,1671.00
2022-10-19T06:39:01.665Z,1777.00
2022-10-19T06:40:04.865Z,1872.00
2022-10-19T06:41:02.564Z,1931.00
2022-10-19T06:42:01.538Z,1953.00
2022-10-19T06:43:01.515Z,1946.00
2022-10-19T06:44:01.543Z,1936.00
2022-10-19T06:45:01.494Z,1901.00
2022-10-19T06:46:01.488Z,1830.00
2022-10-19T06:47:01.462Z,1796.00
2022-10-19T06:48:03.669Z,1735.00
2022-10-19T06:49:02.444Z,1694.00
2022-10-19T06:50:01.436Z,1642.00
2022-10-19T06:51:01.409Z,1592.00
2022-10-19T06:52:01.398Z,1582.00
2022-10-19T06:53:01.397Z,1658.00
2022-10-19T06:54:01.400Z,1775.00
2022-10-19T06:55:01.388Z,1871.00
2022-10-19T06:56:02.295Z,1931.00
2022-10-19T06:57:01.367Z,1982.00
2022-10-19T06:58:01.315Z,1993.00
2022-10-19T06:59:01.322Z,2010.00
2022-10-19T07:00:01.298Z,2043.00
2022-10-19T07:01:01.320Z,2095.00
2022-10-19T07:02:01.259Z,2128.00
2022-10-19T07:03:01.250Z,2128.00
2022-10-19T07:04:01.252Z,2127.00
2022-10-19T07:05:06.134Z,2135.00
2022-10-19T07:06:02.218Z,2146.00
2022-10-19T07:07:02.141Z,2158.00
2022-10-19T07:08:01.238Z,2152.00
2022-10-19T07:09:01.181Z,2152.00
2022-10-19T07:10:02.108Z,2145.00
2022-10-19T07:11:01.151Z,2166.00
2022-10-19T07:12:01.132Z,2133.00
2022-10-19T07:13:01.153Z,2164.00
2022-10-19T07:14:01.113Z,2266.00
2022-10-19T07:15:01.094Z,2347.00
2022-10-19T07:16:01.081Z,2420.00
2022-10-19T07:17:01.063Z,2438.00
2022-10-19T07:18:01.054Z,2430.00
2022-10-19T07:19:01.063Z,2405.00
2022-10-19T07:20:01.033Z,2348.00
2022-10-19T07:21:01.022Z,2316.00
2022-10-19T07:22:01.004Z,2311.00
2022-10-19T07:23:00.988Z,2398.00
2022-10-19T07:24:00.978Z,2530.00
2022-10-19T07:25:00.956Z,2622.00
2022-10-19T07:26:00.945Z,2673.00
2022-10-19T07:27:00.926Z,2684.00
2022-10-19T07:28:00.916Z,2678.00
2022-10-19T07:29:00.918Z,2698.00
2022-10-19T07:30:00.893Z,2642.00
2022-10-19T07:31:00.884Z,2585.00
2022-10-19T07:32:01.101Z,2486.00
2022-10-19T07:33:00.908Z,2376.00
2022-10-19T07:34:00.858Z,2282.00
2022-10-19T07:35:00.831Z,2223.00
2022-10-19T07:36:00.848Z,2181.00
2022-10-19T07:37:00.820Z,2177.00
2022-10-19T07:38:00.778Z,2191.00
2022-10-19T07:39:00.789Z,2256.00
2022-10-19T07:40:00.759Z,2346.00
2022-10-19T07:41:01.699Z,2468.00
2022-10-19T07:42:00.729Z,2519.00
2022-10-19T07:43:00.730Z,2547.00
2022-10-19T07:44:00.700Z,2572.00
2022-10-19T07:45:00.692Z,2578.00
2022-10-19T07:46:00.680Z,2575.00
2022-10-19T07:47:00.668Z,2547.00
2022-10-19T07:48:00.661Z,2517.00
2022-10-19T07:49:00.650Z,2469.00
2022-10-19T07:50:00.623Z,2407.00
2022-10-19T07:51:00.622Z,2381.00
2022-10-19T07:52:00.594Z,2400.00
2022-10-19T07:53:00.592Z,2454.00
2022-10-19T07:54:00.571Z,2477.00
2022-10-19T07:55:00.563Z,2427.00
2022-10-19T07:56:00.544Z,2318.00
2022-10-19T07:57:00.543Z,2220.00
2022-10-19T07:58:00.526Z,2182.00
2022-10-19T07:59:00.506Z,2208.00
2022-10-19T08:00:00.485Z,2279.00
2022-10-19T08:01:00.483Z,2393.00
2022-10-19T08:02:00.506Z,2524.00
2022-10-19T08:03:43.187Z,2643.00
2022-10-19T08:05:05.077Z,2874.00
2022-10-19T08:06:01.414Z,2916.00
2022-10-19T08:07:00.405Z,2940.00
2022-10-19T08:08:01.337Z,2956.00
2022-10-19T08:09:00.428Z,2952.00
2022-10-19T08:10:00.367Z,2965.00
2022-10-19T08:11:00.355Z,3017.00
2022-10-19T08:12:00.349Z,3058.00
2022-10-19T08:13:00.335Z,3098.00
2022-10-19T08:14:01.276Z,3125.00
2022-10-19T08:15:00.316Z,3175.00
2022-10-19T08:16:00.275Z,3251.00
2022-10-19T08:17:00.270Z,3308.00
2022-10-19T08:18:00.258Z,3381.00
2022-10-19T08:19:00.239Z,3436.00
2022-10-19T08:20:00.220Z,3496.00
2022-10-19T08:21:00.210Z,3580.00
2022-10-19T08:22:00.196Z,3693.00
2022-10-19T08:23:00.216Z,3783.00
2022-10-19T08:24:01.147Z,3826.00
2022-10-19T08:25:00.162Z,3849.00
2022-10-19T08:26:00.163Z,3857.00
2022-10-19T08:27:00.142Z,3853.00
2022-10-19T08:28:00.122Z,3853.00
2022-10-19T08:29:00.126Z,3918.00
2022-10-19T08:30:00.111Z,3997.00
2022-10-19T08:31:00.093Z,4036.00
2022-10-19T08:32:00.074Z,4064.00
2022-10-19T08:33:00.097Z,4061.00
2022-10-19T08:34:00.040Z,4051.00
2022-10-19T08:35:00.034Z,4075.00
2022-10-19T08:36:00.005Z,4096.00
2022-10-19T08:37:00.003Z,4126.00
2022-10-19T08:38:02.749Z,4096.00
2022-10-19T08:38:59.974Z,4036.00
2022-10-19T08:39:59.956Z,3978.00
2022-10-19T08:41:00.906Z,3929.00
2022-10-19T08:41:59.930Z,3873.00
2022-10-19T08:42:59.926Z,3745.00
2022-10-19T08:43:59.895Z,3634.00
2022-10-19T08:44:59.896Z,3509.00
2022-10-19T08:45:59.876Z,3471.00
2022-10-19T08:47:02.404Z,3513.00
2022-10-19T08:47:59.854Z,3586.00
2022-10-19T08:48:59.897Z,3678.00
2022-10-19T08:49:59.818Z,3805.00
2022-10-19T08:50:59.814Z,3882.00
2022-10-19T08:51:59.873Z,3991.00
2022-10-19T08:52:59.792Z,4020.00
2022-10-19T08:53:59.770Z,4024.00
2022-10-19T08:54:59.762Z,4039.00
2022-10-19T08:56:04.602Z,4080.00
2022-10-19T08:56:59.731Z,4141.00
2022-10-19T08:57:59.731Z,4184.00
2022-10-19T08:58:59.711Z,4216.00
2022-10-19T08:59:59.701Z,4247.00
2022-10-19T09:00:59.681Z,4265.00
2022-10-19T09:01:59.670Z,4285.00
2022-10-19T09:02:59.658Z,4302.00
2022-10-19T09:04:03.492Z,4297.00
2022-10-19T09:04:59.621Z,4254.00
2022-10-19T09:05:59.612Z,4232.00
2022-10-19T09:06:59.611Z,4222.00
2022-10-19T09:07:59.582Z,4240.00
2022-10-19T09:08:59.631Z,4272.00
2022-10-19T09:09:59.558Z,4317.00
2022-10-19T09:10:59.554Z,4332.00
2022-10-19T09:11:59.558Z,4324.00
2022-10-19T09:12:59.564Z,4277.00
2022-10-19T09:14:05.203Z,4254.00
2022-10-19T09:15:00.535Z,4229.00
2022-10-19T09:15:59.483Z,4236.00
2022-10-19T09:16:59.504Z,4223.00
2022-10-19T09:18:00.395Z,4219.00
2022-10-19T09:18:59.446Z,4164.00
2022-10-19T09:19:59.445Z,4176.00
2022-10-19T09:20:59.416Z,4181.00
2022-10-19T09:21:59.406Z,4161.00
2022-10-19T09:23:01.378Z,4079.00
2022-10-19T09:23:59.377Z,3942.00
2022-10-19T09:24:59.368Z,3938.00
2022-10-19T09:25:59.348Z,3944.00
2022-10-19T09:27:00.218Z,4110.00
2022-10-19T09:27:59.358Z,4163.00
2022-10-19T09:29:00.259Z,4127.00
2022-10-19T09:29:59.289Z,4117.00
2022-10-19T09:30:59.289Z,4098.00
2022-10-19T09:32:00.356Z,4090.00
2022-10-19T09:32:59.261Z,4154.00
2022-10-19T09:33:59.240Z,4317.00
2022-10-19T09:34:59.230Z,4514.00
2022-10-19T09:35:59.211Z,4718.00
2022-10-19T09:36:59.254Z,4908.00
2022-10-19T09:37:59.182Z,5028.00
2022-10-19T09:38:59.171Z,5106.00
2022-10-19T09:39:59.164Z,5170.00
2022-10-19T09:40:59.152Z,5204.00
2022-10-19T09:41:59.142Z,5242.00
2022-10-19T09:42:59.124Z,5308.00
2022-10-19T09:43:59.114Z,5379.00
2022-10-19T09:44:59.099Z,5424.00
2022-10-19T09:45:59.081Z,5418.00
2022-10-19T09:46:59.083Z,5409.00
2022-10-19T09:48:08.616Z,5467.00
2022-10-19T09:49:00.046Z,5488.00
2022-10-19T09:49:59.025Z,5519.00
2022-10-19T09:50:59.035Z,5566.00
2022-10-19T09:51:59.004Z,5570.00
2022-10-19T09:52:58.998Z,5561.00
2022-10-19T09:53:58.977Z,5567.00
2022-10-19T09:54:58.973Z,5577.00
2022-10-19T09:55:58.964Z,5609.00
2022-10-19T09:56:58.955Z,5595.00
2022-10-19T09:57:58.927Z,5628.00
2022-10-19T09:58:58.944Z,5600.00
2022-10-19T09:59:58.927Z,5542.00
2022-10-19T10:00:59.138Z,5428.00
2022-10-19T10:01:58.917Z,5323.00
2022-10-19T10:02:58.869Z,5297.00
2022-10-19T10:03:58.859Z,5298.00
2022-10-19T10:04:58.840Z,5229.00
2022-10-19T10:05:58.830Z,5235.00
2022-10-19T10:06:58.816Z,5279.00
2022-10-19T10:07:58.816Z,5289.00
2022-10-19T10:08:58.823Z,5296.00
2022-10-19T10:09:58.768Z,5303.00
2022-10-19T10:10:58.763Z,5330.00
2022-10-19T10:11:59.701Z,5393.00
2022-10-19T10:12:58.732Z,5423.00
2022-10-19T10:13:58.712Z,5451.00
2022-10-19T10:14:58.705Z,5476.00
2022-10-19T10:15:58.692Z,5501.00
2022-10-19T10:16:58.684Z,5573.00
2022-10-19T10:17:59.603Z,5738.00
2022-10-19T10:18:58.646Z,5854.00
2022-10-19T10:19:58.632Z,5918.00
2022-10-19T10:20:58.639Z,5918.00
2022-10-19T10:21:59.561Z,5976.00
2022-10-19T10:22:58.603Z,6036.00
2022-10-19T10:24:00.887Z,5944.00
2022-10-19T10:24:58.575Z,5738.00
2022-10-19T10:25:58.565Z,5508.00
2022-10-19T10:26:58.608Z,5286.00
2022-10-19T10:27:58.526Z,5153.00
2022-10-19T10:29:01.312Z,5201.00
2022-10-19T10:29:58.500Z,5399.00
2022-10-19T10:30:58.508Z,5469.00
2022-10-19T10:31:59.426Z,5384.00
2022-10-19T10:33:04.747Z,5330.00
2022-10-19T10:34:06.487Z,5250.00
2022-10-19T10:35:01.267Z,5322.00
2022-10-19T10:35:58.430Z,5319.00
2022-10-19T10:36:58.409Z,5293.00
2022-10-19T10:37:58.400Z,5373.00
2022-10-19T10:38:58.487Z,5423.00
2022-10-19T10:40:02.106Z,5430.00
2022-10-19T10:40:59.370Z,5105.00
2022-10-19T10:41:58.350Z,5337.00
2022-10-19T10:42:58.341Z,4089.00
2022-10-19T10:44:00.834Z,4488.00
2022-10-19T10:44:59.308Z,4280.00
2022-10-19T10:45:58.324Z,4481.00
2022-10-19T10:46:59.266Z,4520.00
2022-10-19T10:47:58.321Z,4281.00
2022-10-19T10:48:58.256Z,4724.00
2022-10-19T10:49:58.273Z,4024.00
2022-10-19T10:50:58.231Z,3995.00
2022-10-19T10:51:58.213Z,4364.00
2022-10-19T10:52:58.204Z,4484.00
2022-10-19T10:53:58.189Z,4505.00
2022-10-19T10:54:58.199Z,4419.00
2022-10-19T10:55:58.155Z,4356.00
2022-10-19T10:57:01.855Z,4305.00
2022-10-19T10:57:59.134Z,4259.00
2022-10-19T10:58:58.127Z,4202.00
2022-10-19T10:59:58.121Z,4148.00
2022-10-19T11:00:58.097Z,4076.00
2022-10-19T11:01:58.145Z,3982.00
2022-10-19T11:02:58.068Z,3850.00
2022-10-19T11:03:58.050Z,3723.00
2022-10-19T11:04:58.062Z,3679.00
2022-10-19T11:05:58.031Z,3657.00
2022-10-19T11:06:58.026Z,3671.00
2022-10-19T11:07:58.011Z,3725.00
2022-10-19T11:08:58.030Z,3759.00
2022-10-19T11:09:59.487Z,3798.00
2022-10-19T11:10:57.956Z,3841.00
2022-10-19T11:11:57.950Z,3997.00
2022-10-19T11:12:57.930Z,4258.00
2022-10-19T11:13:57.941Z,4486.00
2022-10-19T11:14:57.928Z,4656.00
2022-10-19T11:15:57.901Z,4776.00
2022-10-19T11:16:57.877Z,4825.00
2022-10-19T11:17:57.873Z,4810.00
2022-10-19T11:18:57.863Z,4808.00
2022-10-19T11:19:57.847Z,4851.00
2022-10-19T11:20:57.851Z,4948.00
2022-10-19T11:21:57.819Z,5106.00
2022-10-19T11:22:57.804Z,5222.00
2022-10-19T11:23:57.804Z,5301.00
2022-10-19T11:24:59.265Z,5345.00
2022-10-19T11:25:58.576Z,5389.00
2022-10-19T11:26:58.555Z,5444.00
2022-10-19T11:27:57.744Z,5527.00
2022-10-19T11:28:57.736Z,5610.00
2022-10-19T11:29:57.712Z,5664.00
2022-10-19T11:30:57.701Z,5699.00
2022-10-19T11:31:57.737Z,5702.00
2022-10-19T11:32:57.682Z,5701.00
2022-10-19T11:33:57.671Z,5698.00
2022-10-19T11:34:57.648Z,5679.00
2022-10-19T11:35:57.627Z,5691.00
2022-10-19T11:36:57.662Z,5691.00
2022-10-19T11:38:18.003Z,5643.00
2022-10-19T11:38:58.597Z,5590.00
2022-10-19T11:39:57.589Z,5499.00
2022-10-19T11:41:16.993Z,5397.00
2022-10-19T11:41:58.559Z,5302.00
2022-10-19T11:42:57.540Z,5193.00
2022-10-19T11:43:57.537Z,5007.00
2022-10-19T11:44:57.527Z,4804.00
2022-10-19T11:45:57.497Z,4628.00
2022-10-19T11:46:57.490Z,4454.00
2022-10-19T11:47:57.478Z,4309.00
2022-10-19T11:48:57.472Z,4157.00
2022-10-19T11:49:57.518Z,3937.00
2022-10-19T11:51:04.094Z,3691.00
2022-10-19T11:51:59.383Z,3400.00
2022-10-19T11:52:58.260Z,3111.00
2022-10-19T11:53:57.410Z,2903.00
2022-10-19T11:54:57.399Z,2805.00
2022-10-19T11:55:57.374Z,2828.00
2022-10-19T11:57:03.510Z,2824.00
2022-10-19T11:57:58.351Z,2721.00
2022-10-19T11:58:57.335Z,2531.00
2022-10-19T12:00:03.836Z,2439.00
2022-10-19T12:00:58.326Z,2349.00
2022-10-19T12:01:57.321Z,2306.00
2022-10-19T12:03:01.482Z,2276.00
2022-10-19T12:03:58.271Z,2257.00
2022-10-19T12:04:57.247Z,2227.00
2022-10-19T12:05:57.243Z,2182.00
2022-10-19T12:06:57.274Z,2193.00
2022-10-19T12:07:57.217Z,2231.00
2022-10-19T12:08:57.244Z,2268.00
2022-10-19T12:09:57.185Z,2282.00
2022-10-19T12:10:57.159Z,2306.00
2022-10-19T12:11:57.157Z,2363.00
2022-10-19T12:12:57.149Z,2435.00
2022-10-19T12:13:57.150Z,2520.00
2022-10-19T12:14:57.117Z,2589.00
2022-10-19T12:15:57.120Z,2689.00
2022-10-19T12:16:59.133Z,2760.00
2022-10-19T12:17:57.091Z,2851.00
2022-10-19T12:18:57.060Z,2967.00
2022-10-19T12:19:57.061Z,3099.00
2022-10-19T12:20:57.037Z,3253.00
2022-10-19T12:21:57.028Z,3407.00
2022-10-19T12:22:57.031Z,3571.00
2022-10-19T12:23:57.043Z,3781.00
2022-10-19T12:24:57.011Z,3923.00
2022-10-19T12:25:56.973Z,4045.00
2022-10-19T12:26:56.958Z,4135.00
2022-10-19T12:27:56.972Z,4215.00
2022-10-19T12:28:56.962Z,4251.00
2022-10-19T12:29:56.934Z,4234.00
2022-10-19T12:30:56.915Z,4176.00
2022-10-19T12:31:56.927Z,4114.00
2022-10-19T12:32:56.912Z,4039.00
2022-10-19T12:33:56.884Z,3947.00
2022-10-19T12:34:56.855Z,3884.00
2022-10-19T12:35:56.846Z,3859.00
2022-10-19T12:36:56.836Z,3831.00
2022-10-19T12:37:57.775Z,3829.00
2022-10-19T12:39:00.230Z,3865.00
2022-10-19T12:39:56.797Z,3880.00
2022-10-19T12:40:56.781Z,3900.00
2022-10-19T12:41:56.780Z,3891.00
2022-10-19T12:42:56.760Z,3891.00
2022-10-19T12:43:56.739Z,3913.00
2022-10-19T12:44:58.683Z,3977.00
2022-10-19T12:45:56.719Z,4044.00
2022-10-19T12:47:00.057Z,4104.00
2022-10-19T12:47:56.700Z,4173.00
2022-10-19T12:48:56.670Z,4216.00
2022-10-19T12:49:56.672Z,4302.00
2022-10-19T12:50:56.641Z,4367.00
2022-10-19T12:51:56.651Z,4433.00
2022-10-19T12:52:56.615Z,4444.00
2022-10-19T12:53:56.609Z,4401.00
2022-10-19T12:54:56.596Z,4339.00
2022-10-19T12:55:56.581Z,4335.00
2022-10-19T12:56:56.575Z,4331.00
2022-10-19T12:57:56.552Z,4322.00
2022-10-19T12:58:56.544Z,4284.00
2022-10-19T12:59:57.487Z,4228.00
2022-10-19T13:00:56.554Z,4211.00
2022-10-19T13:01:56.514Z,4181.00
2022-10-19T13:02:57.443Z,4096.00
2022-10-19T13:03:56.471Z,3977.00
2022-10-19T13:04:56.507Z,3863.00
2022-10-19T13:05:57.404Z,3767.00
2022-10-19T13:06:56.435Z,3712.00
2022-10-19T13:07:56.432Z,3672.00
2022-10-19T13:08:56.436Z,3674.00
2022-10-19T13:09:56.409Z,3662.00
2022-10-19T13:10:56.396Z,3628.00
2022-10-19T13:11:56.397Z,3554.00
2022-10-19T13:12:56.361Z,3516.00
2022-10-19T13:13:56.341Z,3494.00
2022-10-19T13:14:56.357Z,3404.00
2022-10-19T13:15:57.286Z,3246.00
2022-10-19T13:16:56.297Z,3117.00
2022-10-19T13:17:56.290Z,3000.00
2022-10-19T13:18:56.298Z,2917.00
2022-10-19T13:19:56.288Z,2810.00
2022-10-19T13:20:56.259Z,2760.00
2022-10-19T13:21:56.238Z,2705.00
2022-10-19T13:22:56.220Z,2662.00
2022-10-19T13:23:56.201Z,2602.00
2022-10-19T13:24:56.200Z,2538.00
2022-10-19T13:25:56.187Z,2489.00
2022-10-19T13:26:56.171Z,2455.00
2022-10-19T13:27:56.168Z,2427.00
2022-10-19T13:28:56.131Z,2417.00
2022-10-19T13:29:56.121Z,2404.00
2022-10-19T13:31:03.260Z,2366.00
2022-10-19T13:31:57.104Z,2358.00
2022-10-19T13:32:56.092Z,2359.00
2022-10-19T13:33:56.093Z,2352.00
2022-10-19T13:34:56.063Z,2374.00
2022-10-19T13:35:56.151Z,2407.00
2022-10-19T13:36:56.993Z,2444.00
2022-10-19T13:37:56.032Z,2444.00
2022-10-19T13:38:56.005Z,2445.00
2022-10-19T13:39:56.001Z,2422.00
2022-10-19T13:40:55.985Z,2402.00
2022-10-19T13:41:55.986Z,2368.00
2022-10-19T13:42:55.957Z,2336.00
2022-10-19T13:43:55.936Z,2287.00
2022-10-19T13:44:55.926Z,2279.00
2022-10-19T13:45:55.926Z,2266.00
2022-10-19T13:46:55.946Z,2273.00
2022-10-19T13:47:55.893Z,2281.00
2022-10-19T13:48:55.867Z,2298.00
2022-10-19T13:49:55.867Z,2265.00
2022-10-19T13:50:55.869Z,2228.00
2022-10-19T13:51:55.866Z,2161.00
2022-10-19T13:52:55.818Z,2103.00
2022-10-19T13:53:55.828Z,2056.00
2022-10-19T13:54:55.789Z,2030.00
2022-10-19T13:55:55.800Z,2030.00
2022-10-19T13:56:55.848Z,2040.00
2022-10-19T13:57:57.023Z,2040.00
2022-10-19T13:58:55.740Z,2058.00
2022-10-19T13:59:55.731Z,2065.00
2022-10-19T14:00:55.748Z,2060.00
2022-10-19T14:01:55.771Z,2027.00
2022-10-19T14:02:55.698Z,1997.00
2022-10-19T14:03:55.682Z,1981.00
2022-10-19T14:04:55.663Z,1977.00
2022-10-19T14:05:55.713Z,1980.00
2022-10-19T14:06:55.724Z,1970.00
2022-10-19T14:07:55.643Z,1957.00
2022-10-19T14:08:55.682Z,1947.00
2022-10-19T14:09:55.624Z,1969.00
2022-10-19T14:11:01.213Z,2004.00
2022-10-19T14:11:56.575Z,2025.00
2022-10-19T14:12:55.564Z,2061.00
2022-10-19T14:13:55.554Z,2103.00
2022-10-19T14:14:55.547Z,2136.00
2022-10-19T14:15:56.470Z,2177.00
2022-10-19T14:16:58.260Z,2213.00
2022-10-19T14:17:56.494Z,2238.00
2022-10-19T14:18:55.476Z,2231.00
2022-10-19T14:19:55.546Z,2223.00
2022-10-19T14:20:55.449Z,2178.00
2022-10-19T14:21:55.437Z,2159.00
2022-10-19T14:22:55.446Z,2116.00
2022-10-19T14:23:55.423Z,2063.00
2022-10-19T14:24:55.409Z,1926.00
2022-10-19T14:25:55.388Z,1885.00
2022-10-19T14:26:55.409Z,1900.00
2022-10-19T14:27:55.369Z,1913.00
2022-10-19T14:28:55.346Z,1939.00
2022-10-19T14:29:55.348Z,1895.00
2022-10-19T14:30:55.315Z,1890.00
2022-10-19T14:31:55.317Z,1904.00
2022-10-19T14:32:58.082Z,1869.00
2022-10-19T14:33:56.287Z,1811.00
2022-10-19T14:34:55.324Z,1737.00
2022-10-19T14:35:55.257Z,1666.00
2022-10-19T14:36:55.321Z,1633.00
2022-10-19T14:37:55.231Z,1615.00
2022-10-19T14:38:55.222Z,1588.00
2022-10-19T14:39:55.224Z,1550.00
2022-10-19T14:40:55.238Z,1524.00
2022-10-19T14:41:55.192Z,1535.00
2022-10-19T14:42:55.161Z,1541.00
2022-10-19T14:43:55.152Z,1519.00
2022-10-19T14:44:55.177Z,1485.00
2022-10-19T14:45:55.123Z,1453.00
2022-10-19T14:46:55.113Z,1417.00
2022-10-19T14:47:55.104Z,1383.00
2022-10-19T14:48:55.091Z,1342.00
2022-10-19T14:49:55.325Z,1317.00
2022-10-19T14:50:55.074Z,1300.00
2022-10-19T14:51:55.066Z,1280.00
2022-10-19T14:52:55.047Z,1253.00
2022-10-19T14:53:55.065Z,1250.00
2022-10-19T14:54:55.020Z,1252.00
2022-10-19T14:55:55.016Z,1242.00
2022-10-19T14:56:54.987Z,1242.00
2022-10-19T14:57:54.981Z,1226.00
2022-10-19T14:58:54.970Z,1196.00
2022-10-19T14:59:54.969Z,1191.00
2022-10-19T15:00:54.927Z,1172.00
2022-10-19T15:01:54.970Z,1158.00
2022-10-19T15:02:54.908Z,1132.00
2022-10-19T15:03:55.903Z,1125.00
2022-10-19T15:04:54.899Z,1121.00
2022-10-19T15:05:54.865Z,1110.00
2022-10-19T15:06:54.845Z,1102.00
2022-10-19T15:07:54.841Z,1088.00
2022-10-19T15:09:54.817Z,1049.00
2022-10-19T15:10:54.792Z,1024.00
2022-10-19T15:11:54.780Z,987.00
2022-10-19T15:12:54.768Z,965.00
2022-10-19T15:13:54.761Z,948.00
2022-10-19T15:14:54.992Z,922.00
2022-10-19T15:15:54.737Z,894.00
2022-10-19T15:16:54.721Z,870.00
2022-10-19T15:17:55.009Z,844.00
2022-10-19T15:18:54.775Z,846.00
2022-10-19T15:19:54.691Z,829.00
2022-10-19T15:21:11.286Z,811.00
2022-10-19T15:21:55.662Z,780.00
2022-10-19T15:22:54.633Z,769.00
2022-10-19T15:23:55.579Z,751.00
2022-10-19T15:24:54.635Z,760.00
2022-10-19T15:25:54.590Z,723.00
2022-10-19T15:27:06.427Z,715.00
2022-10-19T15:27:55.561Z,678.00
2022-10-19T15:28:54.565Z,650.00
2022-10-19T15:29:54.545Z,632.00
2022-10-19T15:30:54.533Z,622.00
2022-10-19T15:31:54.524Z,600.00
2022-10-19T15:32:54.538Z,589.00
2022-10-19T15:33:55.466Z,563.00
2022-10-19T15:34:54.482Z,531.00
2022-10-19T15:35:54.489Z,528.00
2022-10-19T15:36:54.465Z,496.00
2022-10-19T15:37:54.470Z,503.00
2022-10-19T15:39:01.875Z,492.00
2022-10-19T15:39:55.418Z,490.00
2022-10-19T15:40:54.407Z,487.00
2022-10-19T15:41:55.329Z,487.00
2022-10-19T15:42:55.866Z,472.00
2022-10-19T15:43:54.351Z,467.00
2022-10-19T15:44:54.349Z,445.00
2022-10-19T15:45:54.340Z,433.00
2022-10-19T15:46:54.561Z,418.00
2022-10-19T15:47:54.321Z,409.00
2022-10-19T15:48:55.464Z,392.00
2022-10-19T15:49:54.283Z,365.00
2022-10-19T15:50:54.261Z,361.00
2022-10-19T15:51:54.261Z,344.00
2022-10-19T15:52:54.235Z,331.00
2022-10-19T15:53:54.227Z,315.00
2022-10-19T15:54:54.223Z,295.00
2022-10-19T15:55:54.235Z,281.00
2022-10-19T15:56:54.184Z,254.00
2022-10-19T15:57:54.206Z,246.00
2022-10-19T15:58:54.204Z,231.00
2022-10-19T15:59:54.140Z,211.00
2022-10-19T16:00:54.140Z,197.00
2022-10-19T16:01:56.050Z,188.00
2022-10-19T16:02:54.102Z,168.00
2022-10-19T16:03:54.095Z,165.00
2022-10-19T16:04:54.169Z,151.00
2022-10-19T16:05:54.063Z,148.00
2022-10-19T16:06:54.049Z,135.00
2022-10-19T16:07:54.035Z,122.00
2022-10-19T16:08:55.016Z,117.00
2022-10-19T16:09:54.024Z,101.00
2022-10-19T16:10:54.006Z,90.00
2022-10-19T16:11:53.976Z,81.00
2022-10-19T16:12:53.967Z,64.00
2022-10-19T16:13:54.215Z,73.00
2022-10-19T16:14:54.033Z,60.00
2022-10-19T16:16:01.442Z,51.00
2022-10-19T16:16:54.912Z,57.00
2022-10-19T16:17:53.898Z,25.00
2022-10-19T16:18:53.891Z,35.00
2022-10-19T16:19:53.875Z,30.00
2022-10-19T16:20:53.864Z,22.00
2022-10-19T16:21:53.844Z,19.00
2022-10-19T16:22:53.829Z,27.00
2022-10-19T16:23:53.830Z,10.00
2022-10-19T16:24:53.831Z,16.00
2022-10-19T16:25:53.788Z,14.00
2022-10-19T16:26:54.752Z,11.00
2022-10-19T16:27:53.769Z,13.00
2022-10-19T16:28:53.831Z,5.00
2022-10-19T16:29:53.781Z,3.00
2022-10-19T16:30:54.543Z,5.00
2022-10-19T16:31:53.718Z,1.00
2022-10-19T16:32:53.698Z,2.00
2022-10-19T16:33:53.764Z,4.00
2022-10-19T16:34:54.463Z,0.00
2022-10-19T16:35:53.670Z,0.00
2022-10-19T16:36:53.654Z,2.00
2022-10-19T16:37:53.633Z,2.00
2022-10-19T16:38:54.409Z,0.00
2022-10-19T16:39:53.609Z,0.00
2022-10-19T16:40:53.603Z,0.00
2022-10-19T16:41:54.539Z,0.00
2022-10-19T16:42:53.563Z,0.00
2022-10-19T16:43:53.554Z,0.00
2022-10-19T16:44:53.552Z,0.00
2022-10-19T16:45:53.687Z,0.00
2022-10-19T16:46:53.516Z,0.00
2022-10-19T16:47:53.752Z,0.00
2022-10-19T16:48:53.556Z,0.00
2022-10-19T16:49:53.472Z,0.00
2022-10-19T16:50:53.460Z,0.00
2022-10-19T16:51:56.441Z,0.00
2022-10-19T16:52:53.461Z,0.00
2022-10-19T16:53:55.407Z,0.00
2022-10-19T16:54:53.407Z,0.00
2022-10-19T16:55:53.385Z,0.00
2022-10-19T16:56:54.188Z,0.00
2022-10-19T16:57:53.541Z,0.00
2022-10-19T16:58:53.874Z,0.00
2022-10-19T17:00:54.145Z,0.00
2022-10-19T17:01:53.368Z,0.00
2022-10-19T17:02:53.306Z,0.00
2022-10-19T17:03:53.316Z,0.00
2022-10-19T17:04:53.270Z,0.00
2022-10-19T17:05:53.261Z,0.00
2022-10-19T17:06:54.061Z,0.00
2022-10-19T17:07:53.622Z,0.00
2022-10-19T17:09:29.844Z,0.00
2022-10-19T17:09:54.973Z,0.00